createdAt,value
2022-10-31T00:01:27.318Z,99231.56
2022-10-31T00:03:54.744Z,99241.84
2022-10-31T00:06:22.898Z,99229.94
2022-10-31T00:09:01.270Z,99229.09
2022-10-31T00:11:28.697Z,99226.59
2022-10-31T00:13:55.447Z,99236.00
2022-10-31T00:16:24.629Z,99235.38
2022-10-31T00:18:52.960Z,99224.47
2022-10-31T00:21:19.843Z,99226.94
2022-10-31T00:23:46.656Z,99225.31
2022-10-31T00:26:13.537Z,99226.19
2022-10-31T00:28:40.115Z,99231.16
2022-10-31T00:31:09.138Z,99227.56
2022-10-31T00:33:37.648Z,99220.72
2022-10-31T00:36:05.732Z,99216.38
2022-10-31T00:38:32.661Z,99215.53
2022-10-31T00:40:59.540Z,99228.25
2022-10-31T00:43:26.130Z,99223.88
2022-10-31T00:45:52.652Z,99234.03
2022-10-31T00:48:19.228Z,99230.53
2022-10-31T00:50:46.297Z,99245.13
2022-10-31T00:53:12.856Z,99245.88
2022-10-31T00:55:39.379Z,99239.91
2022-10-31T00:58:06.011Z,99239.84
2022-10-31T01:00:32.654Z,99239.00
2022-10-31T01:02:59.519Z,99225.41
2022-10-31T01:05:26.353Z,99217.59
2022-10-31T01:07:52.894Z,99233.88
2022-10-31T01:10:19.587Z,99235.72
2022-10-31T01:12:48.397Z,99231.47
2022-10-31T01:15:18.111Z,99241.78
2022-10-31T01:17:44.684Z,99240.09
2022-10-31T01:20:13.300Z,99232.47
2022-10-31T01:22:39.904Z,99236.88
2022-10-31T01:25:07.404Z,99229.19
2022-10-31T01:27:33.989Z,99237.53
2022-10-31T01:30:00.580Z,99245.25
2022-10-31T01:32:29.779Z,99237.47
2022-10-31T01:34:56.464Z,99249.44
2022-10-31T01:37:23.035Z,99240.78
2022-10-31T01:39:49.787Z,99242.38
2022-10-31T01:42:20.400Z,99244.16
2022-10-31T01:44:57.119Z,99242.47
2022-10-31T01:47:45.534Z,99235.59
2022-10-31T01:50:27.398Z,99233.78
2022-10-31T01:52:55.257Z,99242.25
2022-10-31T01:55:38.917Z,99245.53
2022-10-31T01:58:10.622Z,99248.94
2022-10-31T02:00:37.884Z,99231.81
2022-10-31T02:03:04.687Z,99248.00
2022-10-31T02:05:34.542Z,99250.44
2022-10-31T02:08:08.179Z,99244.41
2022-10-31T02:10:36.839Z,99247.13
2022-10-31T02:13:06.565Z,99250.44
2022-10-31T02:15:34.057Z,99256.34
2022-10-31T02:18:01.495Z,99263.91
2022-10-31T02:20:58.131Z,99243.34
2022-10-31T02:23:52.207Z,99265.66
2022-10-31T02:26:42.616Z,99270.75
2022-10-31T02:29:20.957Z,99279.22
2022-10-31T02:32:17.846Z,99285.91
2022-10-31T02:35:04.566Z,99285.00
2022-10-31T02:37:43.188Z,99295.97
2022-10-31T02:40:22.780Z,99295.97
2022-10-31T02:42:55.128Z,99303.69
2022-10-31T02:45:42.917Z,99305.56
2022-10-31T02:48:15.888Z,99313.31
2022-10-31T02:50:47.720Z,99306.63
2022-10-31T02:53:17.537Z,99307.66
2022-10-31T02:55:51.140Z,99315.31
2022-10-31T02:58:23.440Z,99310.28
2022-10-31T03:00:52.868Z,99305.19
2022-10-31T03:03:32.844Z,99308.41
2022-10-31T03:06:54.802Z,99313.31
2022-10-31T03:09:33.866Z,99325.78
2022-10-31T03:12:20.385Z,99330.06
2022-10-31T03:14:54.586Z,99331.56
2022-10-31T03:17:38.668Z,99339.13
2022-10-31T03:20:10.819Z,99340.03
2022-10-31T03:22:41.625Z,99349.31
2022-10-31T03:25:09.185Z,99358.56
2022-10-31T03:27:40.099Z,99356.03
2022-10-31T03:30:08.873Z,99352.53
2022-10-31T03:32:42.924Z,99362.81
2022-10-31T03:35:12.104Z,99359.34
2022-10-31T03:37:41.522Z,99359.19
2022-10-31T03:40:10.472Z,99366.78
2022-10-31T03:42:41.560Z,99370.09
2022-10-31T03:45:21.032Z,99375.09
2022-10-31T03:47:47.612Z,99366.56
2022-10-31T03:50:16.262Z,99378.25
2022-10-31T03:52:50.874Z,99374.00
2022-10-31T03:55:23.928Z,99377.38
2022-10-31T03:57:58.919Z,99380.69
2022-10-31T04:00:25.668Z,99389.09
2022-10-31T04:03:01.867Z,99379.63
2022-10-31T04:05:30.680Z,99384.44
2022-10-31T04:07:59.881Z,99382.72
2022-10-31T04:10:32.850Z,99387.81
2022-10-31T04:13:07.115Z,99393.97
2022-10-31T04:15:36.243Z,99387.91
2022-10-31T04:18:06.163Z,99398.13
2022-10-31T04:20:37.013Z,99407.25
2022-10-31T04:23:04.658Z,99402.78
2022-10-31T04:25:31.210Z,99412.19
2022-10-31T04:27:58.094Z,99416.25
2022-10-31T04:30:24.949Z,99412.63
2022-10-31T04:32:51.515Z,99426.25
2022-10-31T04:35:18.140Z,99421.06
2022-10-31T04:37:44.708Z,99430.34
2022-10-31T04:40:11.812Z,99425.13
2022-10-31T04:42:38.472Z,99428.50
2022-10-31T04:45:05.604Z,99440.19
2022-10-31T04:47:34.303Z,99435.78
2022-10-31T04:50:01.432Z,99445.03
2022-10-31T04:52:27.971Z,99445.66
2022-10-31T04:54:54.517Z,99448.97
2022-10-31T04:57:21.234Z,99449.78
2022-10-31T04:59:47.808Z,99462.41
2022-10-31T05:02:14.443Z,99469.91
2022-10-31T05:04:41.068Z,99474.97
2022-10-31T05:07:07.605Z,99475.78
2022-10-31T05:09:34.227Z,99489.25
2022-10-31T05:12:00.818Z,99493.34
2022-10-31T05:14:27.386Z,99494.91
2022-10-31T05:16:53.941Z,99493.28
2022-10-31T05:19:20.546Z,99505.38
2022-10-31T05:21:47.080Z,99512.06
2022-10-31T05:24:13.626Z,99516.44
2022-10-31T05:26:40.217Z,99514.78
2022-10-31T05:29:06.744Z,99528.44
2022-10-31T05:31:33.297Z,99533.66
2022-10-31T05:34:00.093Z,99538.81
2022-10-31T07:23:44.161Z,99663.75
2022-10-31T07:26:11.271Z,99650.91
2022-10-31T07:28:37.812Z,99668.81
2022-10-31T07:31:04.446Z,99661.91
2022-10-31T07:33:30.979Z,99673.16
2022-10-31T07:35:57.595Z,99669.66
2022-10-31T07:38:24.182Z,99663.75
2022-10-31T07:40:55.660Z,99663.03
2022-10-31T07:43:22.385Z,99672.69
2022-10-31T07:45:55.061Z,99668.59
2022-10-31T07:48:22.232Z,99677.31
2022-10-31T07:50:48.858Z,99671.69
2022-10-31T07:53:15.857Z,99672.72
2022-10-31T07:55:43.091Z,99664.31
2022-10-31T07:58:10.990Z,99673.84
2022-10-31T08:00:39.075Z,99673.75
2022-10-31T08:03:11.414Z,99675.56
2022-10-31T08:05:46.872Z,99685.88
2022-10-31T08:08:14.395Z,99680.09
2022-10-31T08:10:41.654Z,99684.44
2022-10-31T08:13:11.504Z,99676.69
2022-10-31T08:15:40.483Z,99682.88
2022-10-31T08:18:10.788Z,99681.97
2022-10-31T08:20:37.383Z,99689.88
2022-10-31T08:23:05.975Z,99680.75
2022-10-31T08:25:38.231Z,99697.00
2022-10-31T08:28:07.599Z,99687.47
2022-10-31T08:30:36.807Z,99681.59
2022-10-31T08:33:17.961Z,99692.75
2022-10-31T08:35:45.155Z,99691.94
2022-10-31T08:38:13.329Z,99685.22
2022-10-31T08:40:40.116Z,99698.91
2022-10-31T08:43:11.832Z,99697.22
2022-10-31T08:45:38.700Z,99695.78
2022-10-31T08:48:14.177Z,99693.22
2022-10-31T08:50:41.297Z,99697.59
2022-10-31T08:53:19.660Z,99697.53
2022-10-31T08:55:47.598Z,99689.28
2022-10-31T08:58:20.419Z,99690.13
2022-10-31T09:00:50.000Z,99690.44
2022-10-31T09:03:22.281Z,99706.00
2022-10-31T09:05:49.859Z,99696.88
2022-10-31T09:08:17.456Z,99690.91
2022-10-31T09:10:45.339Z,99694.38
2022-10-31T09:13:15.045Z,99706.31
2022-10-31T09:15:44.665Z,99698.94
2022-10-31T09:18:12.609Z,99693.19
2022-10-31T09:20:40.555Z,99691.75
2022-10-31T09:23:10.749Z,99689.22
2022-10-31T09:25:37.473Z,99698.69
2022-10-31T09:28:05.980Z,99684.47
2022-10-31T09:30:36.989Z,99691.41
2022-10-31T09:33:10.355Z,99693.94
2022-10-31T09:35:37.833Z,99695.66
2022-10-31T09:38:06.964Z,99694.09
2022-10-31T09:40:39.724Z,99691.59
2022-10-31T09:43:44.353Z,99695.06
2022-10-31T09:46:16.964Z,99683.91
2022-10-31T09:49:14.882Z,99686.44
2022-10-31T09:51:49.181Z,99693.19
2022-10-31T09:54:35.374Z,99690.63
2022-10-31T09:57:03.067Z,99690.63
2022-10-31T09:59:36.087Z,99682.91
2022-10-31T10:02:20.189Z,99676.28
2022-10-31T10:05:01.997Z,99691.94
2022-10-31T10:07:36.739Z,99679.38
2022-10-31T10:10:15.217Z,99691.53
2022-10-31T10:12:57.802Z,99705.09
2022-10-31T10:15:52.878Z,99690.28
2022-10-31T10:18:28.580Z,99698.28
2022-10-31T10:20:55.051Z,99694.91
2022-10-31T10:23:38.392Z,99693.31
2022-10-31T10:26:13.900Z,99690.06
2022-10-31T10:28:44.852Z,99690.94
2022-10-31T10:31:19.626Z,99683.28
2022-10-31T10:34:20.264Z,99697.13
2022-10-31T10:37:15.845Z,99704.13
2022-10-31T10:39:46.613Z,99700.00
2022-10-31T10:42:34.362Z,99700.13
2022-10-31T10:45:26.505Z,99695.03
2022-10-31T10:48:06.298Z,99674.72
2022-10-31T10:50:37.941Z,99698.00
2022-10-31T10:53:36.347Z,99686.13
2022-10-31T10:56:28.974Z,99696.41
2022-10-31T10:58:57.397Z,99691.06
2022-10-31T11:01:24.258Z,99675.44
2022-10-31T11:03:50.840Z,99659.94
2022-10-31T11:06:26.629Z,99667.31
2022-10-31T11:08:53.520Z,99671.81
2022-10-31T11:11:31.408Z,99667.88
2022-10-31T11:14:12.853Z,99677.09
2022-10-31T11:16:43.294Z,99679.34
2022-10-31T11:19:30.163Z,99678.78
2022-10-31T11:22:08.142Z,99680.31
2022-10-31T11:24:41.200Z,99686.22
2022-10-31T11:27:27.008Z,99682.84
2022-10-31T11:29:58.309Z,99682.63
2022-10-31T11:32:28.516Z,99693.91
2022-10-31T11:34:59.470Z,99684.56
2022-10-31T11:37:28.680Z,99688.28
2022-10-31T11:40:01.294Z,99664.78
2022-10-31T11:42:35.625Z,99689.19
2022-10-31T11:45:07.923Z,99675.09
2022-10-31T11:47:34.841Z,99676.28
2022-10-31T11:50:12.381Z,99680.50
2022-10-31T11:52:41.154Z,99681.19
2022-10-31T11:55:13.923Z,99691.00
2022-10-31T11:57:53.091Z,99701.13
2022-10-31T12:00:46.119Z,99691.69
2022-10-31T12:03:24.471Z,99688.78
2022-10-31T12:05:54.800Z,99682.44
2022-10-31T12:08:21.439Z,99681.91
2022-10-31T12:11:03.948Z,99673.38
2022-10-31T12:14:03.703Z,99678.06
2022-10-31T12:17:13.768Z,99681.44
2022-10-31T12:20:06.167Z,99690.81
2022-10-31T12:22:55.925Z,99689.31
2022-10-31T12:25:37.760Z,99696.06
2022-10-31T12:28:13.905Z,99686.84
2022-10-31T12:31:21.354Z,99693.69
2022-10-31T12:34:11.959Z,99691.50
2022-10-31T12:37:16.641Z,99699.41
2022-10-31T12:40:01.055Z,99706.34
2022-10-31T12:42:52.649Z,99705.44
2022-10-31T12:45:47.535Z,99695.78
2022-10-31T12:48:26.212Z,99680.50
2022-10-31T12:51:16.801Z,99689.09
2022-10-31T12:53:49.558Z,99697.06
2022-10-31T12:56:29.323Z,99695.28
2022-10-31T12:59:28.371Z,99695.00
2022-10-31T13:02:12.220Z,99700.53
2022-10-31T13:05:14.131Z,99694.88
2022-10-31T13:07:55.536Z,99704.16
2022-10-31T13:10:30.928Z,99700.47
2022-10-31T13:13:07.825Z,99700.94
2022-10-31T13:15:48.825Z,99708.09
2022-10-31T13:18:27.957Z,99703.69
2022-10-31T13:20:56.737Z,99710.50
2022-10-31T13:23:49.223Z,99717.16
2022-10-31T13:26:30.092Z,99717.75
2022-10-31T13:29:14.686Z,99718.00
2022-10-31T13:31:43.014Z,99717.31
2022-10-31T13:34:44.260Z,99722.63
2022-10-31T13:37:18.704Z,99726.31
2022-10-31T13:40:05.117Z,99732.31
2022-10-31T13:42:46.894Z,99731.16
2022-10-31T13:45:24.628Z,99734.78
2022-10-31T13:48:15.849Z,99742.88
2022-10-31T13:50:44.117Z,99754.41
2022-10-31T13:53:35.410Z,99744.88
2022-10-31T13:56:20.290Z,99745.69
2022-10-31T13:59:10.395Z,99746.03
2022-10-31T14:01:45.959Z,99757.72
2022-10-31T14:04:24.911Z,99757.13
2022-10-31T14:07:00.103Z,99764.34
2022-10-31T14:10:06.318Z,99762.69
2022-10-31T14:12:43.431Z,99763.06
2022-10-31T14:15:18.688Z,99769.59
2022-10-31T14:18:00.272Z,99771.19
2022-10-31T14:20:43.036Z,99772.41
2022-10-31T14:23:30.867Z,99771.16
2022-10-31T14:26:19.357Z,99777.28
2022-10-31T14:28:47.665Z,99778.22
2022-10-31T14:31:36.774Z,99780.34
2022-10-31T14:34:21.280Z,99784.97
2022-10-31T14:37:30.192Z,99791.41
2022-10-31T14:40:23.118Z,99791.13
2022-10-31T14:43:05.478Z,99787.25
2022-10-31T14:45:58.762Z,99787.09
2022-10-31T14:48:51.956Z,99791.19
2022-10-31T14:51:23.888Z,99798.16
2022-10-31T14:53:58.530Z,99797.78
2022-10-31T14:56:33.258Z,99797.31
2022-10-31T14:59:11.083Z,99801.38
2022-10-31T15:01:40.891Z,99808.06
2022-10-31T15:04:24.692Z,99802.84
2022-10-31T15:07:13.115Z,99809.66
2022-10-31T15:09:44.377Z,99804.84
2022-10-31T15:12:24.348Z,99817.75
2022-10-31T15:14:50.940Z,99809.22
2022-10-31T15:17:17.502Z,99809.25
2022-10-31T15:19:45.500Z,99813.41
2022-10-31T15:22:16.977Z,99821.69
2022-10-31T15:24:44.417Z,99825.22
2022-10-31T15:27:14.317Z,99830.78
2022-10-31T15:29:51.329Z,99837.38
2022-10-31T15:32:30.392Z,99836.16
2022-10-31T15:34:58.135Z,99835.09
2022-10-31T15:37:26.798Z,99842.38
2022-10-31T15:39:53.608Z,99846.72
2022-10-31T15:42:26.049Z,99846.31
2022-10-31T15:45:12.743Z,99850.34
2022-10-31T15:47:40.283Z,99853.41
2022-10-31T15:50:21.744Z,99849.41
2022-10-31T15:52:49.305Z,99860.16
2022-10-31T15:55:20.856Z,99862.56
2022-10-31T15:57:50.926Z,99861.41
2022-10-31T16:00:26.684Z,99862.34
2022-10-31T16:03:15.149Z,99868.63
2022-10-31T16:05:45.762Z,99873.53
2022-10-31T16:08:30.642Z,99872.50
2022-10-31T16:11:13.569Z,99870.19
2022-10-31T16:14:01.615Z,99872.31
2022-10-31T16:16:35.176Z,99874.41
2022-10-31T16:19:05.567Z,99879.59
2022-10-31T16:21:38.158Z,99885.50
2022-10-31T16:24:30.161Z,99879.53
2022-10-31T16:27:05.135Z,99884.03
2022-10-31T16:29:43.169Z,99884.22
2022-10-31T16:32:30.770Z,99882.91
2022-10-31T16:35:09.302Z,99888.09
2022-10-31T16:37:42.254Z,99887.41
2022-10-31T16:40:18.904Z,99897.94
2022-10-31T16:42:48.225Z,99889.47
2022-10-31T16:45:19.234Z,99887.03
2022-10-31T16:47:46.333Z,99889.94
2022-10-31T16:50:27.063Z,99892.72
2022-10-31T16:53:12.749Z,99891.22
2022-10-31T16:55:47.740Z,99878.91
2022-10-31T16:58:26.166Z,99885.00
2022-10-31T17:00:53.551Z,99888.03
2022-10-31T17:03:20.755Z,99889.47
2022-10-31T17:05:47.326Z,99895.03
2022-10-31T17:08:14.091Z,99897.91
2022-10-31T17:10:42.656Z,99889.59
2022-10-31T17:13:15.527Z,99898.97
2022-10-31T17:15:45.864Z,99902.84
2022-10-31T17:18:14.444Z,99899.34
2022-10-31T17:20:42.038Z,99909.50
2022-10-31T17:23:11.227Z,99895.84
2022-10-31T17:25:38.076Z,99909.75
2022-10-31T17:28:04.939Z,99911.38
2022-10-31T17:30:31.864Z,99906.97
2022-10-31T17:32:58.681Z,99914.72
2022-10-31T17:35:25.554Z,99916.06
2022-10-31T17:37:52.227Z,99927.13
2022-10-31T17:40:21.317Z,99924.25
2022-10-31T17:42:52.857Z,99933.06
2022-10-31T17:45:20.629Z,99937.31
2022-10-31T17:47:51.909Z,99936.25
2022-10-31T17:50:23.843Z,99931.03
2022-10-31T17:52:55.324Z,99938.97
2022-10-31T17:55:21.864Z,99935.75
2022-10-31T17:57:51.507Z,99937.41
2022-10-31T18:00:21.903Z,99939.88
2022-10-31T18:02:48.496Z,99942.94
2022-10-31T18:05:15.130Z,99953.88
2022-10-31T18:07:41.757Z,99945.47
2022-10-31T18:10:09.152Z,99953.66
2022-10-31T18:12:37.070Z,99960.19
2022-10-31T18:15:04.194Z,99965.25
2022-10-31T18:17:31.921Z,99969.22
2022-10-31T18:19:58.609Z,99967.81
2022-10-31T18:22:25.204Z,99961.63
2022-10-31T18:24:51.754Z,99974.25
2022-10-31T18:27:18.312Z,99975.44
2022-10-31T18:29:45.513Z,99968.38
2022-10-31T18:32:12.095Z,99972.41
2022-10-31T18:34:41.326Z,99975.75
2022-10-31T18:37:07.909Z,99974.75
2022-10-31T18:39:34.482Z,99975.22
2022-10-31T18:42:01.034Z,99982.19
2022-10-31T18:44:27.925Z,99986.41
2022-10-31T18:46:54.741Z,99986.31
2022-10-31T18:49:22.626Z,99986.63
2022-10-31T18:51:50.662Z,99984.09
2022-10-31T18:54:18.049Z,99995.94
2022-10-31T18:56:45.269Z,99991.34
2022-10-31T18:59:12.437Z,99999.94
2022-10-31T19:01:39.540Z,99995.88
2022-10-31T19:04:06.612Z,100001.91
2022-10-31T19:06:33.165Z,100003.34
2022-10-31T19:09:06.206Z,100004.56
2022-10-31T19:11:33.916Z,100005.25
2022-10-31T19:14:01.326Z,100005.63
2022-10-31T19:16:28.866Z,100011.22
2022-10-31T19:18:57.231Z,100015.06
2022-10-31T19:21:24.245Z,100014.03
2022-10-31T19:23:52.907Z,100022.38
2022-10-31T19:26:19.793Z,100025.56
2022-10-31T19:28:46.363Z,100022.88
2022-10-31T19:31:12.927Z,100021.94
2022-10-31T19:33:39.673Z,100024.63
2022-10-31T19:36:13.286Z,100025.91
2022-10-31T19:38:42.473Z,100033.88
2022-10-31T19:41:12.678Z,100032.63
2022-10-31T19:43:39.477Z,100040.88
2022-10-31T19:46:09.064Z,100033.91
2022-10-31T19:48:38.776Z,100035.84
2022-10-31T19:51:11.192Z,100039.72
2022-10-31T19:53:38.768Z,100042.81
2022-10-31T19:56:12.038Z,100047.81
2022-10-31T19:58:38.974Z,100049.31
2022-10-31T20:01:12.961Z,100050.13
2022-10-31T20:03:42.105Z,100053.28
2022-10-31T20:06:28.410Z,100048.06
2022-10-31T20:08:56.258Z,100050.25
2022-10-31T20:11:27.421Z,100058.59
2022-10-31T20:14:00.344Z,100057.72
2022-10-31T20:16:27.528Z,100058.28
2022-10-31T20:18:55.126Z,100055.03
2022-10-31T20:21:24.924Z,100056.38
2022-10-31T20:23:58.365Z,100053.97
2022-10-31T20:26:28.309Z,100053.25
2022-10-31T20:28:58.765Z,100056.75
2022-10-31T20:31:28.742Z,100052.38
2022-10-31T20:33:55.851Z,100061.84
2022-10-31T20:36:23.376Z,100054.28
2022-10-31T20:38:51.837Z,100063.09
2022-10-31T20:41:18.855Z,100058.03
2022-10-31T20:43:45.893Z,100064.41
2022-10-31T20:46:15.355Z,100070.38
2022-10-31T20:48:42.239Z,100069.06
2022-10-31T20:51:13.142Z,100067.50
2022-10-31T20:53:39.846Z,100060.53
2022-10-31T20:56:15.325Z,100065.91
2022-10-31T20:58:43.551Z,100068.38
2022-10-31T21:01:12.314Z,100067.84
2022-10-31T21:03:39.024Z,100064.44
2022-10-31T21:06:06.053Z,100065.06
2022-10-31T21:08:33.139Z,100063.16
2022-10-31T21:11:00.768Z,100069.22
2022-10-31T21:13:31.874Z,100063.41
2022-10-31T21:16:01.017Z,100067.72
2022-10-31T21:18:27.598Z,100070.94
2022-10-31T21:20:54.268Z,100061.19
2022-10-31T21:23:21.168Z,100067.06
2022-10-31T21:25:47.963Z,100076.28
2022-10-31T21:28:14.899Z,100078.06
2022-10-31T21:30:46.602Z,100080.94
2022-10-31T21:33:13.650Z,100072.47
2022-10-31T21:35:40.215Z,100077.53
2022-10-31T21:38:06.863Z,100079.91
2022-10-31T21:40:33.641Z,100090.81
2022-10-31T21:43:00.519Z,100081.41
2022-10-31T21:45:27.253Z,100078.00
2022-10-31T21:47:53.779Z,100085.31
2022-10-31T21:50:20.405Z,100083.50
2022-10-31T21:52:46.932Z,100084.38
2022-10-31T21:55:13.647Z,100084.38
2022-10-31T21:57:40.265Z,100088.75
2022-10-31T22:00:08.955Z,100086.28
2022-10-31T22:02:36.377Z,100081.06
2022-10-31T22:05:03.655Z,100085.59
2022-10-31T22:07:31.811Z,100084.91
2022-10-31T22:09:58.389Z,100083.50
2022-10-31T22:12:24.999Z,100077.91
2022-10-31T22:14:51.569Z,100080.28
2022-10-31T22:17:18.091Z,100078.44
2022-10-31T22:19:44.669Z,100076.88
2022-10-31T22:22:12.539Z,100080.88
2022-10-31T22:24:39.081Z,100083.16
2022-10-31T22:27:05.638Z,100080.28
2022-10-31T22:29:32.248Z,100087.00
2022-10-31T22:31:59.790Z,100081.75
2022-10-31T22:34:28.665Z,100079.13
2022-10-31T22:36:56.467Z,100068.84
2022-10-31T22:39:23.047Z,100071.09
2022-10-31T22:41:49.623Z,100084.28
2022-10-31T22:44:16.137Z,100084.97
2022-10-31T22:46:42.728Z,100081.50
2022-10-31T22:49:17.497Z,100085.69
2022-10-31T22:51:44.803Z,100089.09
2022-10-31T22:54:17.219Z,100086.44
2022-10-31T22:56:44.099Z,100094.66
2022-10-31T22:59:16.230Z,100089.75
2022-10-31T23:01:45.636Z,100099.88
2022-10-31T23:04:13.541Z,100102.34
2022-10-31T23:06:40.479Z,100097.09
2022-10-31T23:09:08.114Z,100097.88
2022-10-31T23:11:38.237Z,100103.03
2022-10-31T23:14:10.868Z,100099.81
2022-10-31T23:16:47.526Z,100092.63
2022-10-31T23:19:24.522Z,100102.84
2022-10-31T23:21:56.882Z,100094.19
2022-10-31T23:24:45.416Z,100100.22
2022-10-31T23:27:17.503Z,100093.31
2022-10-31T23:29:51.084Z,100095.69
2022-10-31T23:32:30.253Z,100098.50
2022-10-31T23:34:59.829Z,100104.06
2022-10-31T23:37:32.291Z,100105.63
2022-10-31T23:39:59.208Z,100096.56
2022-10-31T23:42:26.922Z,100098.53
2022-10-31T23:44:53.911Z,100107.09
2022-10-31T23:47:21.011Z,100103.44
2022-10-31T23:49:48.197Z,100107.38
2022-10-31T23:52:15.868Z,100104.56
2022-10-31T23:54:42.699Z,100106.31
2022-10-31T23:57:11.157Z,100106.13
2022-10-31T23:59:37.741Z,100103.19
